Helsinki, Finland

2:53 AM EEST op 05 augustus 2015 (GMT +0300)
Vantaa | | Change Station
CLOSE
Current Station
Luchthaven
Location: Helsinki,
Geometrische hoogte: 184 ft
Nabije weerstations

Hoogte 184 ft 60.32 °N, 24.96 °E | Updated 3 minutes ago

Clear
Helder
50 °F
Voelt als 50 °F
N
4
Wind Variabel Wind van Variabel

Vandaag
Hoog -- | Laag -- °F
--% Kans op neerslag
Gisteren
Hoog -- | Laag -- °F
Precip. -- inches
5:07 AM 9:43 PM
Afnemende maan, 73% visible
Druk 30.18 inches
Zicht -9999.0 mijlen
Wolken
Dauwpunt 50 °F
Vochtigheid 100%
Neerslag 0.00 inches
Dikte sneeuw Niet beschikbaar.
UV Niet beschikbaar.
Pollen Niet beschikbaar.
Luchtkwaliteit Niet beschikbaar.
Flu Activity Niet beschikbaar.
METAR EFHK 042350Z VRB03KT CAVOK 10/10 Q1022 NOSIG

More Conditions Fewer Conditions

Druk 30.18 inches
Zicht -9999.0 mijlen
Wolken
Dauwpunt 50 °F
Vochtigheid 100%
Neerslag 0.00 inches
Dikte sneeuw Niet beschikbaar.
UV Niet beschikbaar.
Pollen Niet beschikbaar.
Luchtkwaliteit Niet beschikbaar.
Flu Activity Niet beschikbaar.
METAR EFHK 042350Z VRB03KT CAVOK 10/10 Q1022 NOSIG

More Conditions Fewer Conditions

10-Day Weather Forecast

×

Almanac

Astronomie

Aug. 05, 2015 Opkomst Ondergang
Werkelijke tijd
Burgerlijke schemering
Nautische schemering
Astronomische schemering
Maan
Golflengte van het zichtbare licht
Daglengte
Tomorrow will be .
, % of the Moon is Illuminated

Extremen vandaag

Country Highs Country Lows

Community

WunderPhotos

Upload Photos

1,844,023 foto’s ge-upload!

WunderBlogs® & News

Nearby

Luchtkwaliteit

  Luchtkwaliteit LK-index Verontreinigende stof
Not available.

Dikte sneeuw

Station Depth Geometrische hoogte

Aardbevingen

Stad Distance Mag. Time & Date
Minimum magnitude displayed is 2.5.

Watertemperatuur langs de kust

Plaats Temperatuur

Stations

Nabije weerstations

Locatie station Temp. Gevoelstemperatuur Dauwpunt Vochtigheid Wind Precip. Hoogte Geactualiseerd Type